Terminal Aerodrome Forecast
Issued by NWS Amarillo, TX

Home | Current Version | Previous Version | Text Only | Print | Product List | Glossary On
Versions: 1 2 3 4 5 6 7 8 9 10 11 12 13 14 15 16
000
FTUS44 KAMA 231443 AAC
TAFGUY
TAF AMD
KGUY 231443Z 2315/2412 VRB06KT 3/4SM BR OVC004
      TEMPO 2315/2318 1/4SM -SN FZFG OVC002
     FM231900 11013KT P6SM SCT300
     FM240900 14009KT P6SM FEW050=

USA.gov is the U.S. government's official web portal to all federal, state and local government web resources and services.